Time;durP1;ratioP1;P1;durP2;ratioP2;P2;SDS_P1;SDS_P2;PMS_P1;PMS_P2;Temp;Humidity;BMP_temperature;BMP_pressure;BME280_temperature;BME280_humidity;BME280_pressure;Samples;Min_cycle;Max_cycle;Signal;HPM_P1;HPM_P2
2022/06/11 00:00:17;;;;;;;30.07;8.57;;;15.10;31.30;;;;;;4991681;28;20476;-69
2022/06/11 00:02:45;;;;;;;30.43;7.93;;;15.10;31.60;;;;;;4991961;28;20852;-69
2022/06/11 00:05:13;;;;;;;28.40;8.27;;;15.00;32.00;;;;;;4991454;28;20468;-69
2022/06/11 00:07:40;;;;;;;31.30;8.70;;;15.00;32.50;;;;;;4990086;28;20814;-69
2022/06/11 00:10:08;;;;;;;30.83;8.50;;;15.10;32.20;;;;;;4991179;28;20460;-69
2022/06/11 00:12:36;;;;;;;31.03;7.60;;;15.00;32.60;;;;;;4991588;28;20484;-69
2022/06/11 00:15:05;;;;;;;33.23;8.37;;;15.00;32.90;;;;;;4990693;28;20464;-69
2022/06/11 00:17:32;;;;;;;31.20;9.03;;;15.00;32.80;;;;;;4989955;28;21444;-69
2022/06/11 00:19:59;;;;;;;30.77;8.70;;;15.00;32.80;;;;;;4990769;28;20476;-69
2022/06/11 00:22:27;;;;;;;33.43;8.60;;;14.90;32.80;;;;;;4990670;28;20734;-69
2022/06/11 00:24:54;;;;;;;33.23;9.17;;;14.90;32.80;;;;;;4991115;28;20479;-68
2022/06/11 00:27:22;;;;;;;29.70;8.40;;;14.90;32.60;;;;;;4990244;28;20999;-68
2022/06/11 00:29:49;;;;;;;35.00;9.80;;;14.80;32.80;;;;;;4990040;28;20995;-69
2022/06/11 00:32:16;;;;;;;34.70;9.07;;;14.80;32.90;;;;;;4988914;28;20469;-69
2022/06/11 00:34:44;;;;;;;32.07;8.63;;;14.80;33.20;;;;;;4990657;28;20472;-68
2022/06/11 00:37:13;;;;;;;33.20;9.67;;;14.80;32.90;;;;;;4990927;28;20471;-69
2022/06/11 00:39:41;;;;;;;33.73;8.57;;;14.80;32.90;;;;;;4988459;28;20484;-68
2022/06/11 00:42:14;;;;;;;31.37;9.07;;;14.70;32.90;;;;;;4991794;28;20453;-69
2022/06/11 00:44:41;;;;;;;34.50;9.67;;;14.80;32.90;;;;;;4990736;28;20445;-68
2022/06/11 00:47:15;;;;;;;33.93;9.73;;;14.80;32.60;;;;;;4991367;28;20468;-68
2022/06/11 00:49:45;;;;;;;33.90;8.97;;;14.80;33.00;;;;;;4989629;28;20468;-69
2022/06/11 00:52:20;;;;;;;31.43;9.20;;;14.90;33.00;;;;;;4989820;28;20515;-69
2022/06/11 00:54:53;;;;;;;31.17;8.40;;;14.80;32.70;;;;;;4989988;28;20917;-69
2022/06/11 00:57:21;;;;;;;36.40;9.17;;;14.80;32.80;;;;;;4989444;28;20511;-69
2022/06/11 00:59:52;;;;;;;31.33;8.30;;;14.80;32.80;;;;;;4990716;28;20485;-69
2022/06/11 01:02:18;;;;;;;29.10;7.60;;;14.80;33.00;;;;;;4989312;28;20471;-69
2022/06/11 01:04:50;;;;;;;31.13;8.10;;;14.80;33.00;;;;;;4990761;28;20461;-69
2022/06/11 01:07:49;;;;;;;33.80;8.47;;;14.80;32.90;;;;;;4990493;28;20460;-69
2022/06/11 01:10:51;;;;;;;31.60;7.70;;;14.80;32.90;;;;;;4983061;28;20842;-69
2022/06/11 01:13:31;;;;;;;32.03;7.73;;;14.70;32.70;;;;;;4990287;28;20487;-69
2022/06/11 01:16:01;;;;;;;32.23;7.90;;;14.70;32.90;;;;;;4990139;28;20456;-69
2022/06/11 01:18:38;;;;;;;32.30;7.73;;;14.60;33.10;;;;;;4989860;28;20547;-69
2022/06/11 01:21:19;;;;;;;30.83;8.40;;;14.60;33.20;;;;;;4988690;28;20473;-69
2022/06/11 01:24:27;;;;;;;32.87;8.37;;;14.60;33.30;;;;;;4990111;28;20481;-69
2022/06/11 01:27:21;;;;;;;31.10;7.57;;;14.50;33.60;;;;;;4969750;28;20461;-69
2022/06/11 01:29:54;;;;;;;35.20;7.90;;;14.40;33.70;;;;;;4988497;28;20468;-69
2022/06/11 01:32:31;;;;;;;35.40;8.43;;;14.30;34.40;;;;;;4989106;28;20469;-69
2022/06/11 01:35:19;;;;;;;32.17;8.70;;;14.20;34.30;;;;;;4989434;28;20460;-69
2022/06/11 01:37:50;;;;;;;32.63;8.47;;;14.10;34.90;;;;;;4989946;28;20452;-69
2022/06/11 01:40:30;;;;;;;32.77;9.33;;;14.10;34.80;;;;;;4989951;28;20461;-69
2022/06/11 01:43:01;;;;;;;32.00;8.00;;;14.00;35.00;;;;;;4990022;28;20475;-69
2022/06/11 01:45:32;;;;;;;32.83;8.40;;;13.90;35.10;;;;;;4989276;28;20472;-69
2022/06/11 01:48:00;;;;;;;36.20;9.17;;;13.90;35.20;;;;;;4989667;28;20453;-69
2022/06/11 01:50:30;;;;;;;32.77;8.70;;;13.80;35.10;;;;;;4990504;28;20480;-69
2022/06/11 01:53:17;;;;;;;36.10;9.27;;;13.70;35.40;;;;;;4990131;28;20484;-68
2022/06/11 01:55:56;;;;;;;32.30;8.50;;;13.60;35.70;;;;;;4989254;28;20460;-69
2022/06/11 01:58:38;;;;;;;33.87;9.20;;;13.60;36.50;;;;;;4988872;28;20833;-68
2022/06/11 02:01:17;;;;;;;32.70;8.33;;;13.50;36.10;;;;;;4989040;28;20480;-69
2022/06/11 02:03:52;;;;;;;32.17;8.97;;;13.50;36.50;;;;;;4989060;28;20492;-68
2022/06/11 02:06:30;;;;;;;32.33;8.80;;;13.40;36.60;;;;;;4988701;28;20453;-69
2022/06/11 02:09:08;;;;;;;34.10;8.50;;;13.40;36.70;;;;;;4989070;28;20437;-68
2022/06/11 02:11:38;;;;;;;33.70;8.57;;;13.40;36.80;;;;;;4989437;28;20893;-69
2022/06/11 02:14:13;;;;;;;34.67;8.47;;;13.40;36.80;;;;;;4988501;28;20477;-68
2022/06/11 02:16:46;;;;;;;33.50;9.27;;;13.40;36.90;;;;;;4986922;28;20464;-69
2022/06/11 02:19:17;;;;;;;34.57;9.00;;;13.30;37.30;;;;;;4989813;28;20444;-69
2022/06/11 02:21:50;;;;;;;33.43;8.97;;;13.30;37.20;;;;;;4988520;28;20964;-69
2022/06/11 02:24:22;;;;;;;33.77;9.17;;;13.30;37.20;;;;;;4988751;28;21016;-68
2022/06/11 02:26:52;;;;;;;32.60;9.97;;;13.30;37.40;;;;;;4987572;28;20543;-69
2022/06/11 02:29:23;;;;;;;29.30;7.90;;;13.30;37.60;;;;;;4989290;28;20457;-69
2022/06/11 02:31:54;;;;;;;34.33;9.27;;;13.30;37.80;;;;;;4988877;28;20472;-69
2022/06/11 02:34:24;;;;;;;31.20;8.60;;;13.30;37.50;;;;;;4988679;28;20784;-69
2022/06/11 02:36:58;;;;;;;37.03;8.67;;;13.30;37.50;;;;;;4988175;28;20847;-68
2022/06/11 02:39:26;;;;;;;34.10;9.80;;;13.30;37.40;;;;;;4988439;28;20914;-69
2022/06/11 02:41:53;;;;;;;33.57;9.10;;;13.30;37.30;;;;;;4989106;28;20575;-69
2022/06/11 02:44:20;;;;;;;33.77;9.87;;;13.30;37.30;;;;;;4988630;28;20484;-69
2022/06/11 02:46:47;;;;;;;34.90;8.87;;;13.30;37.20;;;;;;4987758;28;20460;-68
2022/06/11 02:49:19;;;;;;;35.20;9.40;;;13.30;37.10;;;;;;4988702;28;20910;-68
2022/06/11 02:51:48;;;;;;;33.60;9.60;;;13.30;37.30;;;;;;4988470;28;20835;-69
2022/06/11 02:54:15;;;;;;;31.40;9.40;;;13.30;37.30;;;;;;4988506;28;20993;-69
2022/06/11 02:56:43;;;;;;;32.60;10.07;;;13.30;37.40;;;;;;4987275;28;20475;-68
2022/06/11 02:59:09;;;;;;;32.90;9.40;;;13.30;37.50;;;;;;4987499;28;20465;-69
2022/06/11 03:01:37;;;;;;;32.40;8.67;;;13.40;37.90;;;;;;4987965;28;20473;-69
2022/06/11 03:04:05;;;;;;;33.30;8.90;;;13.40;37.40;;;;;;4988225;28;20479;-69
2022/06/11 03:06:34;;;;;;;33.50;8.87;;;13.30;37.70;;;;;;4988938;28;20465;-69
2022/06/11 03:09:01;;;;;;;30.87;8.50;;;13.30;37.60;;;;;;4987431;28;20543;-69
2022/06/11 03:11:28;;;;;;;33.90;8.50;;;13.30;38.00;;;;;;4989158;28;20468;-69
2022/06/11 03:13:55;;;;;;;33.80;8.60;;;13.30;37.70;;;;;;4988213;28;20484;-69
2022/06/11 03:16:22;;;;;;;33.90;8.13;;;13.30;37.80;;;;;;4989198;28;20462;-69
2022/06/11 03:18:49;;;;;;;33.37;9.37;;;13.30;38.10;;;;;;4991852;28;20490;-69
2022/06/11 03:21:16;;;;;;;34.93;9.17;;;13.30;38.20;;;;;;4992361;28;20560;-68
2022/06/11 03:23:44;;;;;;;31.37;7.30;;;13.30;38.40;;;;;;4992844;28;20495;-69
2022/06/11 03:26:11;;;;;;;31.03;8.47;;;13.30;38.20;;;;;;4992802;28;20460;-69
2022/06/11 03:28:39;;;;;;;33.50;7.20;;;13.40;38.50;;;;;;4991660;28;20467;-69
2022/06/11 03:31:07;;;;;;;40.27;8.43;;;13.40;38.30;;;;;;4991103;28;20475;-69
2022/06/11 03:33:35;;;;;;;32.40;7.97;;;13.40;38.90;;;;;;4992504;28;20484;-69
2022/06/11 03:36:05;;;;;;;32.30;7.97;;;13.40;38.40;;;;;;4991700;28;20457;-69
2022/06/11 03:38:32;;;;;;;35.57;8.83;;;13.40;38.00;;;;;;4992524;28;20460;-69
2022/06/11 03:41:00;;;;;;;32.60;9.07;;;13.40;38.20;;;;;;4990720;28;20515;-69
2022/06/11 03:43:27;;;;;;;35.00;9.20;;;13.40;38.40;;;;;;4992336;28;20484;-69
2022/06/11 03:45:54;;;;;;;33.00;8.93;;;13.50;38.80;;;;;;4991769;28;20559;-69
2022/06/11 03:48:22;;;;;;;33.43;8.67;;;13.50;38.60;;;;;;4992071;28;20461;-69
2022/06/11 03:50:49;;;;;;;33.53;9.60;;;13.50;38.70;;;;;;4991327;28;20460;-69
2022/06/11 03:53:16;;;;;;;35.17;9.67;;;13.50;38.90;;;;;;4991222;28;20768;-68
2022/06/11 03:55:44;;;;;;;31.90;9.13;;;13.50;39.00;;;;;;4992100;28;20456;-69
2022/06/11 03:58:13;;;;;;;32.40;9.60;;;13.60;39.30;;;;;;4991417;28;20464;-68
2022/06/11 04:04:05;;;;;;;35.43;9.30;;;13.70;39.90;;;;;;4991133;28;20424;-69
2022/06/11 04:06:35;;;;;;;32.17;8.87;;;13.70;39.60;;;;;;4991084;28;20451;-68
2022/06/11 04:09:05;;;;;;;33.50;7.60;;;13.70;39.40;;;;;;4992463;28;20820;-69
2022/06/11 04:11:32;;;;;;;32.40;8.30;;;13.70;39.40;;;;;;4989861;28;20460;-69
2022/06/11 04:14:00;;;;;;;31.60;8.20;;;13.70;39.50;;;;;;4991728;28;20487;-69
2022/06/11 04:16:31;;;;;;;36.77;9.37;;;13.70;39.40;;;;;;4991254;28;20834;-69
2022/06/11 04:19:00;;;;;;;34.63;8.57;;;13.80;39.30;;;;;;4991460;28;20595;-69
2022/06/11 04:21:29;;;;;;;32.97;9.20;;;13.80;39.50;;;;;;4990493;28;20487;-69
2022/06/11 04:23:57;;;;;;;34.17;8.60;;;13.80;39.00;;;;;;4990826;28;20492;-69
2022/06/11 04:26:28;;;;;;;31.50;8.33;;;13.80;39.00;;;;;;4991338;28;20472;-69
2022/06/11 04:28:56;;;;;;;32.47;9.60;;;13.90;39.20;;;;;;4989799;28;20441;-69
2022/06/11 04:31:25;;;;;;;32.40;8.30;;;14.20;40.80;;;;;;4990938;28;20530;-69
2022/06/11 04:33:52;;;;;;;33.67;7.30;;;15.20;39.70;;;;;;4990632;28;20555;-69
2022/06/11 04:36:21;;;;;;;32.60;6.83;;;16.20;36.40;;;;;;4991083;28;20465;-69
2022/06/11 04:38:48;;;;;;;34.47;6.90;;;17.20;32.90;;;;;;4990929;28;20465;-69
2022/06/11 04:41:15;;;;;;;31.73;6.70;;;18.20;30.70;;;;;;4990469;28;20843;-69
2022/06/11 04:43:42;;;;;;;32.23;7.40;;;19.00;26.70;;;;;;4990159;28;20489;-69
2022/06/11 04:46:11;;;;;;;32.93;6.67;;;19.70;24.50;;;;;;4990926;28;20467;-69
2022/06/11 04:48:46;;;;;;;32.03;6.77;;;20.40;21.30;;;;;;4990744;28;20879;-69
2022/06/11 04:51:15;;;;;;;32.67;6.63;;;20.80;20.10;;;;;;4990258;28;20460;-69
2022/06/11 04:53:44;;;;;;;32.57;6.30;;;21.40;18.80;;;;;;4989511;28;20488;-69
2022/06/11 04:56:13;;;;;;;30.70;6.30;;;21.50;17.80;;;;;;4990793;28;20879;-69
2022/06/11 04:58:40;;;;;;;32.00;6.40;;;21.70;18.60;;;;;;4990203;28;20859;-69
2022/06/11 05:01:08;;;;;;;31.77;5.90;;;22.40;17.60;;;;;;4990264;28;20473;-69
2022/06/11 05:03:34;;;;;;;30.03;5.70;;;23.30;15.90;;;;;;4990211;28;20484;-69
2022/06/11 05:06:03;;;;;;;32.73;6.00;;;24.00;13.90;;;;;;4990275;28;20464;-69
2022/06/11 05:08:30;;;;;;;32.17;6.20;;;24.70;12.60;;;;;;4990320;28;20733;-69
2022/06/11 05:10:57;;;;;;;31.70;6.43;;;25.20;11.80;;;;;;4990058;28;20457;-69
2022/06/11 05:13:37;;;;;;;30.23;6.80;;;26.00;10.70;;;;;;4989660;28;20491;-69
2022/06/11 05:16:04;;;;;;;30.77;6.43;;;26.70;9.90;;;;;;4971628;28;20461;-69
2022/06/11 05:18:35;;;;;;;29.07;5.30;;;27.40;8.50;;;;;;4971050;28;20468;-69
2022/06/11 05:21:04;;;;;;;29.97;6.03;;;28.00;7.80;;;;;;4971437;28;20474;-69
2022/06/11 05:23:30;;;;;;;28.73;5.47;;;28.60;6.90;;;;;;4970844;28;20494;-69
2022/06/11 05:25:57;;;;;;;28.57;5.53;;;29.20;5.60;;;;;;4972177;28;20442;-69
2022/06/11 05:28:27;;;;;;;28.80;6.10;;;29.70;4.20;;;;;;4974738;28;20471;-69
2022/06/11 05:30:56;;;;;;;31.97;6.30;;;30.40;3.60;;;;;;4989966;28;20479;-69
2022/06/11 05:33:24;;;;;;;29.50;5.77;;;30.90;3.00;;;;;;4990658;28;20543;-69
2022/06/11 05:35:52;;;;;;;30.73;6.50;;;31.30;2.60;;;;;;4990216;28;20825;-70
2022/06/11 05:38:24;;;;;;;27.77;4.93;;;31.80;1.30;;;;;;4990372;28;20863;-69
2022/06/11 05:40:52;;;;;;;29.90;5.23;;;32.20;1.00;;;;;;4989594;28;20481;-69
2022/06/11 05:43:19;;;;;;;31.87;5.60;;;32.60;1.00;;;;;;4990266;28;20586;-69
2022/06/11 05:45:50;;;;;;;27.47;5.30;;;33.20;1.00;;;;;;4990766;28;20950;-69
2022/06/11 05:48:19;;;;;;;28.80;6.17;;;33.70;1.00;;;;;;4989898;28;20464;-69
2022/06/11 05:50:49;;;;;;;27.23;5.60;;;34.20;1.00;;;;;;4989953;28;20471;-69
2022/06/11 05:53:22;;;;;;;28.77;5.57;;;34.80;1.00;;;;;;4988902;28;20495;-69
2022/06/11 05:55:50;;;;;;;26.03;4.73;;;35.40;1.00;;;;;;4989903;28;20523;-70
2022/06/11 05:58:33;;;;;;;25.90;4.60;;;36.00;1.00;;;;;;4989332;28;20461;-70
2022/06/11 06:01:01;;;;;;;26.27;4.87;;;36.50;1.00;;;;;;4989243;28;20988;-69
2022/06/11 06:03:28;;;;;;;25.80;4.90;;;37.10;1.00;;;;;;4989313;28;20845;-69
2022/06/11 06:05:54;;;;;;;25.70;4.20;;;37.50;1.00;;;;;;4989476;28;20471;-69
2022/06/11 06:08:23;;;;;;;25.60;5.00;;;37.90;1.00;;;;;;4989486;28;20468;-69
2022/06/11 06:10:50;;;;;;;25.00;5.13;;;38.40;1.00;;;;;;4989694;28;20468;-70
2022/06/11 06:16:02;;;;;;;24.73;4.70;;;39.10;1.00;;;;;;4989908;28;20444;-69
2022/06/11 06:18:29;;;;;;;25.40;5.20;;;39.50;1.00;;;;;;4989086;28;20461;-69
2022/06/11 06:20:55;;;;;;;25.83;4.80;;;39.90;1.00;;;;;;4987776;28;20467;-69
2022/06/11 06:23:23;;;;;;;26.93;4.57;;;40.30;1.00;;;;;;4988951;28;20484;-69
2022/06/11 06:25:50;;;;;;;24.40;4.60;;;40.90;1.00;;;;;;4989346;28;20460;-69
2022/06/11 06:28:17;;;;;;;25.47;4.57;;;41.30;1.00;;;;;;4988692;28;20966;-69
2022/06/11 06:30:44;;;;;;;25.17;4.30;;;41.80;1.00;;;;;;4987560;28;20469;-70
2022/06/11 06:33:11;;;;;;;24.30;4.40;;;42.50;1.00;;;;;;4989344;28;20477;-69
2022/06/11 06:35:38;;;;;;;25.47;4.80;;;42.90;1.00;;;;;;4985177;28;20467;-69
2022/06/11 06:38:06;;;;;;;23.60;4.10;;;43.30;1.00;;;;;;4987539;28;20472;-69
2022/06/11 06:40:34;;;;;;;24.77;4.80;;;43.80;1.00;;;;;;4983910;28;20468;-70
2022/06/11 06:43:01;;;;;;;22.97;3.70;;;44.40;1.00;;;;;;4984101;28;20684;-69
2022/06/11 06:45:28;;;;;;;23.07;4.10;;;44.90;1.00;;;;;;4987995;28;20472;-69
2022/06/11 06:47:55;;;;;;;24.93;4.20;;;45.20;1.00;;;;;;4989600;28;20472;-70
2022/06/11 06:50:22;;;;;;;25.33;4.27;;;45.80;1.00;;;;;;4987918;28;21121;-69
2022/06/11 06:52:49;;;;;;;23.30;4.10;;;46.40;1.00;;;;;;4988460;28;20484;-70
2022/06/11 06:55:16;;;;;;;23.37;4.10;;;47.00;1.00;;;;;;4988388;28;20472;-69
2022/06/11 06:57:45;;;;;;;22.40;3.70;;;47.20;1.00;;;;;;4989037;28;20464;-70
2022/06/11 07:00:12;;;;;;;21.33;3.40;;;47.50;1.00;;;;;;4986514;28;20993;-70
2022/06/11 07:02:39;;;;;;;24.03;3.93;;;47.60;1.00;;;;;;4988538;28;21025;-70
2022/06/11 07:05:08;;;;;;;24.40;4.20;;;47.90;1.00;;;;;;4987301;28;20457;-70
2022/06/11 07:07:35;;;;;;;21.47;3.40;;;48.40;1.00;;;;;;4989012;28;20465;-70
2022/06/11 07:10:03;;;;;;;21.10;3.30;;;48.70;1.00;;;;;;4988817;28;20829;-70
2022/06/11 07:12:30;;;;;;;21.73;3.73;;;49.30;1.00;;;;;;4984431;28;20468;-70
2022/06/11 07:14:58;;;;;;;20.90;3.30;;;49.80;1.00;;;;;;4989043;28;20977;-69
2022/06/11 07:17:27;;;;;;;22.37;3.77;;;50.10;1.00;;;;;;4987311;28;20504;-70
2022/06/11 07:19:58;;;;;;;20.80;3.00;;;50.30;1.00;;;;;;4989349;28;20465;-70
2022/06/11 07:22:31;;;;;;;20.70;3.00;;;50.40;1.00;;;;;;4987469;28;20476;-70
2022/06/11 07:24:59;;;;;;;23.00;3.57;;;50.90;1.00;;;;;;4968950;28;20967;-70
2022/06/11 07:27:29;;;;;;;20.27;3.33;;;51.20;1.00;;;;;;4985670;28;20484;-70
2022/06/11 07:30:03;;;;;;;20.80;3.03;;;51.40;1.00;;;;;;4988600;28;20488;-70
2022/06/11 07:32:35;;;;;;;21.90;3.60;;;51.60;1.00;;;;;;4981208;28;20470;-70
2022/06/11 07:35:02;;;;;;;20.67;3.13;;;51.60;1.00;;;;;;4992188;28;20461;-70
2022/06/11 07:37:29;;;;;;;21.00;3.70;;;51.90;1.00;;;;;;4982499;23;20505;-64
2022/06/11 07:39:56;;;;;;;21.87;3.20;;;52.00;1.00;;;;;;4963115;28;20493;-64
2022/06/11 07:42:23;;;;;;;20.90;3.70;;;52.40;1.00;;;;;;4964936;28;20481;-63
2022/06/11 07:44:50;;;;;;;20.93;3.67;;;52.80;1.00;;;;;;4967129;28;20480;-64
2022/06/11 07:47:53;;;;;;;19.57;3.10;;;53.50;1.00;;;;;;4965258;28;20480;-63
2022/06/11 07:50:08;;;;;;;21.10;3.20;;;53.80;1.00;;;;;;4963779;28;20556;-66
2022/06/11 07:52:35;;;;;;;20.20;3.00;;;54.20;1.00;;;;;;4965542;28;20473;-64
2022/06/11 07:55:01;;;;;;;20.30;2.80;;;54.30;1.00;;;;;;4960518;28;20472;-63
2022/06/11 07:57:28;;;;;;;20.27;3.10;;;54.30;1.00;;;;;;4960067;28;20482;-66
2022/06/11 07:59:55;;;;;;;20.23;2.67;;;54.70;1.00;;;;;;4957663;28;21004;-65
2022/06/11 08:02:24;;;;;;;19.07;3.03;;;54.80;1.00;;;;;;4967835;28;20476;-65
2022/06/11 08:04:51;;;;;;;19.50;3.30;;;55.00;1.00;;;;;;4967203;28;20800;-65
2022/06/11 08:07:18;;;;;;;19.77;3.40;;;55.20;1.00;;;;;;4966202;28;20480;-66
2022/06/11 08:09:44;;;;;;;19.83;3.10;;;55.10;1.00;;;;;;4964126;28;20854;-65
2022/06/11 08:12:11;;;;;;;20.17;3.27;;;55.40;1.00;;;;;;4964509;28;20465;-67
2022/06/11 08:14:38;;;;;;;20.93;3.27;;;55.30;1.00;;;;;;4967683;28;20476;-66
2022/06/11 08:17:05;;;;;;;19.10;2.43;;;55.40;1.00;;;;;;4965514;28;20487;-66
2022/06/11 08:19:33;;;;;;;19.00;3.00;;;55.50;1.00;;;;;;4965179;28;20509;-65
2022/06/11 08:22:00;;;;;;;18.90;3.23;;;55.90;1.00;;;;;;4964162;28;20886;-68
2022/06/11 08:24:27;;;;;;;18.73;3.03;;;56.20;1.00;;;;;;4961790;28;20936;-66
2022/06/11 08:26:54;;;;;;;19.10;2.90;;;56.50;1.00;;;;;;4966412;28;20464;-66
2022/06/11 08:29:20;;;;;;;19.43;3.00;;;56.90;1.00;;;;;;4966759;28;20465;-67
2022/06/11 08:31:47;;;;;;;18.37;2.10;;;56.70;1.00;;;;;;4962644;28;20485;-65
2022/06/11 08:34:14;;;;;;;19.13;2.53;;;56.00;1.00;;;;;;4963810;28;20995;-66
2022/06/11 08:36:42;;;;;;;18.47;2.40;;;55.80;1.00;;;;;;4956675;28;20968;-65
2022/06/11 08:39:08;;;;;;;21.30;2.20;;;55.90;1.00;;;;;;4965814;28;20462;-66
2022/06/11 08:41:36;;;;;;;19.50;2.23;;;54.90;1.00;;;;;;4964108;28;20461;-64
2022/06/11 08:44:08;;;;;;;19.10;2.40;;;54.10;1.00;;;;;;4960174;28;20477;-66
2022/06/11 08:46:38;;;;;;;19.40;2.30;;;53.80;1.00;;;;;;4968158;28;21024;-65
2022/06/11 08:49:11;;;;;;;19.17;2.30;;;53.70;1.00;;;;;;4965741;28;21034;-64
2022/06/11 08:51:45;;;;;;;18.93;2.80;;;54.10;1.00;;;;;;4963882;28;20492;-64
2022/06/11 08:54:15;;;;;;;18.97;3.13;;;54.30;1.00;;;;;;4959226;28;20489;-67
2022/06/11 08:56:49;;;;;;;19.23;2.50;;;54.00;1.00;;;;;;4961615;28;20469;-66
2022/06/11 08:59:30;;;;;;;20.07;2.53;;;53.10;1.00;;;;;;4962766;28;20480;-68
2022/06/11 09:02:12;;;;;;;19.23;2.47;;;52.90;1.00;;;;;;4964005;28;20492;-66
2022/06/11 09:04:58;;;;;;;21.00;2.63;;;53.00;1.00;;;;;;4957253;28;20472;-65
2022/06/11 09:07:41;;;;;;;19.37;2.87;;;53.00;1.00;;;;;;4962835;28;20861;-65
2022/06/11 09:10:20;;;;;;;19.90;2.70;;;52.80;1.00;;;;;;4962374;28;20485;-65
2022/06/11 09:13:11;;;;;;;18.93;2.00;;;52.50;1.00;;;;;;4967218;28;20468;-64
2022/06/11 09:15:49;;;;;;;19.80;2.40;;;52.50;1.00;;;;;;4957385;28;20470;-66
2022/06/11 09:18:33;;;;;;;19.43;2.03;;;52.50;1.00;;;;;;4964182;28;20468;-68
2022/06/11 09:21:13;;;;;;;23.60;3.40;;;51.70;1.00;;;;;;4967393;28;20558;-63
2022/06/11 09:24:18;;;;;;;20.17;2.33;;;49.80;1.00;;;;;;4958964;28;20482;-66
2022/06/11 09:26:47;;;;;;;22.03;2.67;;;47.50;1.00;;;;;;4966206;28;20469;-67
2022/06/11 09:29:19;;;;;;;21.90;2.40;;;45.40;1.00;;;;;;4965720;28;20470;-67
2022/06/11 09:31:48;;;;;;;21.37;2.43;;;43.80;1.00;;;;;;4960513;28;20485;-66
2022/06/11 09:34:20;;;;;;;21.73;2.63;;;41.80;1.00;;;;;;4958168;28;20461;-66
2022/06/11 09:36:56;;;;;;;23.37;2.80;;;40.00;1.00;;;;;;4963027;28;20480;-65
2022/06/11 09:39:36;;;;;;;22.87;3.33;;;38.60;1.00;;;;;;4966362;28;20461;-66
2022/06/11 09:42:18;;;;;;;23.80;2.97;;;37.10;1.00;;;;;;4962538;28;20519;-66
2022/06/11 09:44:54;;;;;;;22.97;2.90;;;36.00;1.00;;;;;;4959094;28;20471;-66
2022/06/11 09:47:30;;;;;;;23.90;3.50;;;34.90;1.00;;;;;;4965652;28;20496;-66
2022/06/11 09:50:08;;;;;;;24.13;3.27;;;34.00;1.00;;;;;;4964710;28;20481;-66
2022/06/11 09:52:40;;;;;;;24.00;3.33;;;33.40;1.00;;;;;;4962821;28;20872;-66
2022/06/11 09:55:22;;;;;;;23.87;3.10;;;32.90;1.00;;;;;;4965903;28;20470;-66
2022/06/11 09:57:56;;;;;;;23.90;2.80;;;32.60;1.00;;;;;;4965807;28;20462;-66
2022/06/11 10:00:27;;;;;;;24.60;3.10;;;32.40;1.00;;;;;;4968625;28;20484;-66
2022/06/11 10:03:02;;;;;;;24.93;3.17;;;32.00;1.00;;;;;;4964156;28;20486;-66
2022/06/11 10:05:35;;;;;;;24.90;3.63;;;31.70;1.00;;;;;;4966921;28;20465;-66
2022/06/11 10:08:13;;;;;;;25.03;3.93;;;31.20;1.00;;;;;;4964484;28;20465;-64
2022/06/11 10:10:45;;;;;;;27.67;5.43;;;30.80;1.00;;;;;;4954417;28;20489;-63
2022/06/11 10:13:21;;;;;;;24.00;3.00;;;30.30;1.00;;;;;;4963039;28;20913;-65
2022/06/11 10:15:49;;;;;;;25.00;2.90;;;30.20;1.00;;;;;;4962936;28;21192;-66
2022/06/11 10:18:20;;;;;;;25.87;3.90;;;30.00;1.00;;;;;;4964440;28;20472;-65
2022/06/11 10:20:50;;;;;;;24.73;2.87;;;29.80;1.00;;;;;;4965912;28;20491;-65
2022/06/11 10:23:28;;;;;;;24.80;3.77;;;29.60;1.00;;;;;;4965389;28;20976;-66
2022/06/11 10:25:59;;;;;;;26.17;2.87;;;29.50;1.00;;;;;;4964604;28;21187;-65
2022/06/11 10:28:31;;;;;;;25.40;3.03;;;29.50;1.00;;;;;;4966330;28;20480;-65
2022/06/11 10:31:04;;;;;;;24.67;2.30;;;29.50;1.00;;;;;;4966718;28;20488;-65
2022/06/11 10:33:37;;;;;;;25.37;2.63;;;29.40;1.00;;;;;;4967326;28;20976;-63
2022/06/11 10:36:09;;;;;;;24.97;2.93;;;29.50;1.00;;;;;;4962206;28;20468;-65
2022/06/11 10:38:49;;;;;;;25.63;3.13;;;29.60;1.00;;;;;;4962499;28;20815;-66
2022/06/11 10:41:25;;;;;;;25.03;2.50;;;29.60;1.00;;;;;;4958363;28;21180;-61
2022/06/11 10:44:03;;;;;;;26.07;3.00;;;29.70;1.00;;;;;;4962094;28;20489;-65
2022/06/11 10:46:38;;;;;;;25.37;2.50;;;29.70;1.00;;;;;;4962009;28;20476;-65
2022/06/11 10:49:12;;;;;;;24.80;2.60;;;29.60;1.00;;;;;;4966171;28;20473;-66
2022/06/11 10:51:41;;;;;;;24.63;2.70;;;29.60;1.00;;;;;;4967720;28;20473;-66
2022/06/11 10:54:14;;;;;;;24.40;2.63;;;29.50;1.00;;;;;;4966914;28;20466;-64
2022/06/11 10:56:48;;;;;;;24.80;2.63;;;29.40;1.00;;;;;;4959759;28;20469;-66
2022/06/11 10:59:22;;;;;;;25.33;2.23;;;29.40;1.00;;;;;;4966613;28;20465;-65
2022/06/11 11:01:56;;;;;;;25.57;2.73;;;29.30;1.00;;;;;;4969586;28;20481;-67
2022/06/11 11:04:30;;;;;;;24.30;2.40;;;29.30;1.00;;;;;;4961635;28;20505;-64
2022/06/11 11:07:09;;;;;;;24.77;2.50;;;29.30;1.00;;;;;;4958784;28;21044;-64
2022/06/11 11:09:36;;;;;;;24.57;3.03;;;29.30;1.00;;;;;;4964170;28;20481;-65
2022/06/11 11:12:07;;;;;;;24.57;2.80;;;29.30;1.00;;;;;;4958649;28;20457;-64
2022/06/11 11:14:38;;;;;;;25.70;2.43;;;29.30;1.00;;;;;;4964343;28;20520;-66
2022/06/11 11:17:13;;;;;;;24.83;2.70;;;29.20;1.00;;;;;;4962777;28;21026;-65
2022/06/11 11:19:43;;;;;;;26.17;3.70;;;29.10;1.00;;;;;;4960105;28;20481;-66
2022/06/11 11:22:17;;;;;;;24.67;3.00;;;29.00;1.00;;;;;;4955123;28;20470;-67
2022/06/11 11:24:47;;;;;;;26.93;3.10;;;29.00;1.00;;;;;;4963210;28;20470;-66
2022/06/11 11:27:21;;;;;;;24.47;3.13;;;29.00;1.00;;;;;;4958131;28;20473;-66
2022/06/11 11:29:51;;;;;;;24.87;2.60;;;28.90;1.00;;;;;;4964465;28;20497;-64
2022/06/11 11:32:30;;;;;;;26.27;2.90;;;28.90;1.00;;;;;;4963650;28;21007;-66
2022/06/11 11:34:57;;;;;;;24.60;2.70;;;28.80;1.00;;;;;;4963218;28;20465;-62
2022/06/11 11:37:27;;;;;;;26.90;3.00;;;28.70;1.00;;;;;;4962709;28;20484;-65
2022/06/11 11:39:56;;;;;;;25.70;3.87;;;28.70;1.00;;;;;;4979513;23;20570;-72
2022/06/11 11:42:26;;;;;;;24.35;2.35;;;28.70;1.00;;;;;;4990293;28;20473;-71
2022/06/11 11:44:57;;;;;;;25.87;2.30;;;28.60;1.00;;;;;;4991428;28;21000;-72
2022/06/11 11:47:28;;;;;;;24.47;2.30;;;28.60;1.00;;;;;;4989172;28;20480;-71
2022/06/11 11:50:08;;;;;;;25.80;2.50;;;28.60;1.00;;;;;;4990443;28;20465;-72
2022/06/11 11:52:41;;;;;;;25.60;2.80;;;28.50;1.00;;;;;;4986135;28;20518;-72
2022/06/11 11:55:17;;;;;;;24.70;2.33;;;28.20;1.00;;;;;;4992631;28;20444;-72
2022/06/11 11:57:54;;;;;;;25.43;2.50;;;28.00;1.00;;;;;;4991754;28;21015;-72
2022/06/11 12:00:28;;;;;;;26.00;2.73;;;27.80;1.00;;;;;;4990846;28;20460;-71
2022/06/11 12:03:00;;;;;;;26.03;2.80;;;27.70;1.00;;;;;;4990615;28;20656;-71
2022/06/11 12:05:31;;;;;;;25.50;2.43;;;27.60;1.00;;;;;;4991353;28;20456;-71
2022/06/11 12:08:00;;;;;;;26.73;2.40;;;27.60;1.00;;;;;;4991613;28;20541;-71
2022/06/11 12:10:35;;;;;;;25.73;2.60;;;27.50;1.00;;;;;;4991193;28;20464;-72
2022/06/11 12:13:04;;;;;;;26.30;2.73;;;27.50;1.00;;;;;;4990070;28;20456;-72
2022/06/11 12:15:33;;;;;;;25.97;2.70;;;27.40;1.00;;;;;;4991145;28;20457;-72
2022/06/11 12:18:06;;;;;;;25.67;2.93;;;27.30;1.00;;;;;;4991235;28;20499;-72
2022/06/11 12:20:38;;;;;;;25.17;2.57;;;27.20;1.00;;;;;;4991725;28;20448;-71
2022/06/11 12:23:18;;;;;;;25.73;3.03;;;26.90;1.00;;;;;;4989912;28;20520;-71
2022/06/11 12:25:50;;;;;;;25.53;2.60;;;26.90;1.00;;;;;;4986438;28;20548;-72
2022/06/11 12:28:25;;;;;;;25.60;3.10;;;26.80;1.00;;;;;;4988067;28;20472;-72
2022/06/11 12:30:52;;;;;;;26.80;3.07;;;26.60;1.00;;;;;;4986997;28;20476;-72
2022/06/11 12:33:20;;;;;;;26.00;2.63;;;26.40;1.00;;;;;;4987666;28;20461;-71
2022/06/11 12:35:53;;;;;;;26.40;3.30;;;26.40;1.00;;;;;;4980388;28;20484;-72
2022/06/11 12:38:30;;;;;;;25.87;2.67;;;26.40;1.00;;;;;;4984487;28;20460;-72
2022/06/11 12:41:08;;;;;;;26.00;3.10;;;26.50;1.90;;;;;;4981452;28;20470;-72
2022/06/11 12:43:43;;;;;;;26.10;3.37;;;26.50;1.50;;;;;;4982634;28;20472;-72
2022/06/11 12:46:19;;;;;;;26.67;2.97;;;26.60;1.90;;;;;;4985331;28;20490;-73
2022/06/11 12:48:50;;;;;;;27.13;2.77;;;26.60;2.00;;;;;;4986002;28;20453;-72
2022/06/11 12:51:24;;;;;;;25.03;2.50;;;26.70;2.80;;;;;;4985142;28;20461;-72
2022/06/11 12:54:15;;;;;;;25.47;2.97;;;26.70;1.70;;;;;;4981343;28;21040;-72
2022/06/11 12:57:05;;;;;;;24.70;2.40;;;26.70;1.50;;;;;;4987510;28;20485;-72
2022/06/11 12:59:48;;;;;;;24.80;3.10;;;26.80;1.00;;;;;;4980582;28;21160;-72
2022/06/11 13:02:36;;;;;;;26.93;3.20;;;26.80;3.00;;;;;;4983257;28;20487;-73
2022/06/11 13:05:35;;;;;;;32.23;3.80;;;26.80;3.60;;;;;;4982879;28;20913;-73
2022/06/11 13:08:21;;;;;;;27.73;3.90;;;26.80;3.50;;;;;;4986881;28;20507;-72
2022/06/11 13:10:54;;;;;;;24.50;2.63;;;26.90;3.40;;;;;;4980642;28;20870;-71